PWSweather.com
Personal Weather Stations
Station Observations
KVAGLENALL
West Henrico, Glen Allen, VA 23060-6503

West HenricoGlen Allen, VA 23060-6503

Lat: 37.6554, Lon: -77.5693

Elevation: 273

Station Type: Davis Vantage Pro II

Latest ConditionsUpdated 5:30:20 PM EDT Friday, Jul 29, 2016
Currently Today's Max Today's Min Today's Average
Temperature 87.9°F31.1°C 88.3°F31.3°C 74.2°F23.4°C 79.1°F26.2°C
Dew Point 72.3°F22.4°C 75.8°F24.3°C 72.0°F22.2°C 74.0°F23.3°C
Winds 5.0 mph NNE8.0 kmh NNE 9.0 mph N14.5 kmh N - 1.5 mph 2.4 kmh
Wind Gusts 5.1 mph8.2 kmh 10.1 mph16.3 kmh - -
Humidity 60% 98% 60% 86%
Pressure 29.90 in1012.5 mb 29.91 in1012.9 mb 29.80 in1009.1 mb -
Hour Temp Dew Point Humidity Winds Wind Gusts Pressure Precip Precip Rate Daily Precip Total
05:30 PM 87.9°F31.1°C 72.3°F22.4°C 60% 5.0 mph NNE8.0 kmh NNE 5.1 mph8.2 kmh 29.90 in1012.5 mb 0.00 in0.0 mm 0.00 in0.0 mm 0.25 in6.4 mm
05:15 PM 88.3°F31.3°C 74.2°F23.4°C 63% Calm Calm 2.0 mph3.2 kmh 29.90 in1012.5 mb 0.00 in0.0 mm 0.00 in0.0 mm 0.25 in6.4 mm
05:00 PM 87.7°F30.9°C 72.1°F22.3°C 60% 3.0 mph NE4.8 kmh NE 4.0 mph6.4 kmh 29.89 in1012.2 mb 0.00 in0.0 mm 0.00 in0.0 mm 0.25 in6.4 mm
04:45 PM 87.5°F30.8°C 72.4°F22.4°C 61% 3.0 mph N4.8 kmh N 3.0 mph4.8 kmh 29.89 in1012.2 mb 0.00 in0.0 mm 0.00 in0.0 mm 0.25 in6.4 mm
04:30 PM 87.5°F30.8°C 72.9°F22.7°C 62% 1.0 mph N1.6 kmh N 2.0 mph3.2 kmh 29.89 in1012.2 mb 0.00 in0.0 mm 0.00 in0.0 mm 0.25 in6.4 mm
04:15 PM 87.5°F30.8°C 72.9°F22.7°C 62% 1.0 mph NE1.6 kmh NE 10.1 mph16.3 kmh 29.89 in1012.2 mb 0.00 in0.0 mm 0.00 in0.0 mm 0.25 in6.4 mm
04:00 PM 87.9°F31.1°C 74.2°F23.4°C 64% 1.0 mph NW1.6 kmh NW 4.0 mph6.4 kmh 29.89 in1012.2 mb 0.00 in0.0 mm 0.00 in0.0 mm 0.25 in6.4 mm
03:45 PM 86.6°F30.3°C 73.0°F22.8°C 64% 1.0 mph NW1.6 kmh NW 2.0 mph3.2 kmh 29.90 in1012.5 mb 0.00 in0.0 mm 0.00 in0.0 mm 0.25 in6.4 mm
03:30 PM 85.8°F29.9°C 72.7°F22.6°C 65% Calm Calm 5.1 mph8.2 kmh 29.90 in1012.5 mb 0.00 in0.0 mm 0.00 in0.0 mm 0.25 in6.4 mm
03:15 PM 85.0°F29.4°C 72.0°F22.2°C 65% 3.0 mph NNE4.8 kmh NNE 4.0 mph6.4 kmh 29.90 in1012.5 mb 0.00 in0.0 mm 0.00 in0.0 mm 0.25 in6.4 mm
03:00 PM 83.9°F28.8°C 73.1°F22.8°C 70% Calm Calm 1.0 mph1.6 kmh 29.91 in1012.9 mb 0.00 in0.0 mm 0.00 in0.0 mm 0.25 in6.4 mm
02:45 PM 84.6°F29.2°C 72.9°F22.7°C 68% Calm Calm 3.0 mph4.8 kmh 29.91 in1012.9 mb 0.00 in0.0 mm 0.00 in0.0 mm 0.25 in6.4 mm
02:30 PM 82.9°F28.3°C 73.4°F23.0°C 73% 3.0 mph NNE4.8 kmh NNE 6.1 mph9.8 kmh 29.91 in1012.9 mb 0.00 in0.0 mm 0.00 in0.0 mm 0.25 in6.4 mm
02:15 PM 84.5°F29.2°C 72.4°F22.4°C 67% Calm Calm 4.0 mph6.4 kmh 29.91 in1012.9 mb 0.00 in0.0 mm 0.00 in0.0 mm 0.25 in6.4 mm
02:00 PM 86.4°F30.2°C 74.6°F23.7°C 68% 1.0 mph ESE1.6 kmh ESE 3.0 mph4.8 kmh 29.90 in1012.5 mb 0.00 in0.0 mm 0.00 in0.0 mm 0.25 in6.4 mm
01:45 PM 84.3°F29.1°C 73.1°F22.8°C 69% 2.0 mph N3.2 kmh N 10.1 mph16.3 kmh 29.90 in1012.5 mb 0.00 in0.0 mm 0.00 in0.0 mm 0.25 in6.4 mm
01:30 PM 85.2°F29.6°C 72.6°F22.6°C 66% 4.0 mph N6.4 kmh N 4.0 mph6.4 kmh 29.90 in1012.5 mb 0.00 in0.0 mm 0.00 in0.0 mm 0.25 in6.4 mm
01:15 PM 85.0°F29.4°C 73.7°F23.2°C 69% Calm Calm 4.0 mph6.4 kmh 29.90 in1012.5 mb 0.00 in0.0 mm 0.00 in0.0 mm 0.25 in6.4 mm
01:00 PM 85.0°F29.4°C 75.8°F24.3°C 74% 1.0 mph W1.6 kmh W 4.0 mph6.4 kmh 29.90 in1012.5 mb 0.00 in0.0 mm 0.00 in0.0 mm 0.25 in6.4 mm
12:45 PM 82.9°F28.3°C 73.8°F23.2°C 74% Calm Calm 2.0 mph3.2 kmh 29.90 in1012.5 mb 0.00 in0.0 mm 0.00 in0.0 mm 0.25 in6.4 mm
12:30 PM 84.1°F28.9°C 74.1°F23.4°C 72% 9.0 mph ENE14.5 kmh ENE 9.1 mph14.6 kmh 29.90 in1012.5 mb 0.00 in0.0 mm 0.00 in0.0 mm 0.25 in6.4 mm
12:15 PM 83.5°F28.6°C 74.8°F23.8°C 75% Calm Calm 7.1 mph11.4 kmh 29.91 in1012.9 mb 0.00 in0.0 mm 0.00 in0.0 mm 0.25 in6.4 mm
12:00 PM 81.0°F27.2°C 73.1°F22.8°C 77% Calm Calm 1.0 mph1.6 kmh 29.91 in1012.9 mb 0.00 in0.0 mm 0.00 in0.0 mm 0.25 in6.4 mm
11:45 AM 81.0°F27.2°C 72.7°F22.6°C 76% 7.0 mph NE11.3 kmh NE 9.1 mph14.6 kmh 29.91 in1012.9 mb 0.00 in0.0 mm 0.00 in0.0 mm 0.25 in6.4 mm
11:30 AM 79.7°F26.5°C 72.6°F22.6°C 79% 4.0 mph ENE6.4 kmh ENE 9.1 mph14.6 kmh 29.91 in1012.9 mb 0.00 in0.0 mm 0.00 in0.0 mm 0.25 in6.4 mm
11:15 AM 79.0°F26.1°C 73.0°F22.8°C 82% 4.0 mph NNE6.4 kmh NNE 7.1 mph11.4 kmh 29.91 in1012.9 mb 0.00 in0.0 mm 0.00 in0.0 mm 0.25 in6.4 mm
11:00 AM 78.1°F25.6°C 73.2°F22.9°C 85% 6.0 mph NNE9.7 kmh NNE 9.1 mph14.6 kmh 29.91 in1012.9 mb 0.00 in0.0 mm 0.00 in0.0 mm 0.25 in6.4 mm
10:45 AM 78.1°F25.6°C 73.2°F22.9°C 85% 4.0 mph N6.4 kmh N 8.1 mph13.0 kmh 29.91 in1012.9 mb 0.00 in0.0 mm 0.00 in0.0 mm 0.25 in6.4 mm
10:30 AM 77.7°F25.4°C 73.9°F23.3°C 88% 1.0 mph ENE1.6 kmh ENE 4.0 mph6.4 kmh 29.90 in1012.5 mb 0.00 in0.0 mm 0.00 in0.0 mm 0.25 in6.4 mm
10:15 AM 77.0°F25.0°C 73.2°F22.9°C 88% 1.0 mph N1.6 kmh N 7.1 mph11.4 kmh 29.90 in1012.5 mb 0.00 in0.0 mm 0.00 in0.0 mm 0.25 in6.4 mm
10:00 AM 77.0°F25.0°C 72.5°F22.5°C 86% 2.0 mph ESE3.2 kmh ESE 6.1 mph9.8 kmh 29.89 in1012.2 mb 0.00 in0.0 mm 0.00 in0.0 mm 0.25 in6.4 mm
09:45 AM 77.7°F25.4°C 73.2°F22.9°C 86% 1.0 mph NNW1.6 kmh NNW 9.1 mph14.6 kmh 29.89 in1012.2 mb 0.00 in0.0 mm 0.00 in0.0 mm 0.25 in6.4 mm
09:30 AM 77.7°F25.4°C 74.9°F23.8°C 91% 1.0 mph NNE1.6 kmh NNE 6.1 mph9.8 kmh 29.89 in1012.2 mb 0.00 in0.0 mm 0.00 in0.0 mm 0.25 in6.4 mm
09:15 AM 76.3°F24.6°C 74.4°F23.6°C 94% 3.0 mph N4.8 kmh N 9.1 mph14.6 kmh 29.88 in1011.9 mb 0.00 in0.0 mm 0.00 in0.0 mm 0.25 in6.4 mm
09:00 AM 75.6°F24.2°C 74.1°F23.4°C 95% 2.0 mph NW3.2 kmh NW 5.1 mph8.2 kmh 29.89 in1012.2 mb 0.00 in0.0 mm 0.00 in0.0 mm 0.25 in6.4 mm
08:45 AM 75.1°F23.9°C 73.9°F23.3°C 96% 1.0 mph N1.6 kmh N 6.1 mph9.8 kmh 29.88 in1011.9 mb 0.00 in0.0 mm 0.00 in0.0 mm 0.25 in6.4 mm
08:30 AM 74.2°F23.4°C 73.0°F22.8°C 96% 9.0 mph N14.5 kmh N 9.1 mph14.6 kmh 29.88 in1011.9 mb 0.00 in0.0 mm 0.00 in0.0 mm 0.25 in6.4 mm
08:15 AM 74.4°F23.6°C 73.5°F23.1°C 97% 3.0 mph NNE4.8 kmh NNE 9.1 mph14.6 kmh 29.88 in1011.9 mb 0.00 in0.0 mm 0.00 in0.0 mm 0.25 in6.4 mm
08:00 AM 74.5°F23.6°C 73.6°F23.1°C 97% 1.0 mph N1.6 kmh N 9.1 mph14.6 kmh 29.87 in1011.5 mb 0.00 in0.0 mm 0.00 in0.0 mm 0.25 in6.4 mm
07:45 AM 74.5°F23.6°C 73.9°F23.3°C 98% 3.0 mph NE4.8 kmh NE 5.1 mph8.2 kmh 29.86 in1011.2 mb 0.05 in1.3 mm 0.00 in0.0 mm 0.25 in6.4 mm
07:30 AM 74.7°F23.7°C 74.1°F23.4°C 98% 4.0 mph NNE6.4 kmh NNE 6.1 mph9.8 kmh 29.86 in1011.2 mb 0.05 in1.3 mm 0.00 in0.0 mm 0.25 in6.4 mm
07:15 AM 74.5°F23.6°C 73.9°F23.3°C 98% Calm Calm 3.0 mph4.8 kmh 29.86 in1011.2 mb 0.05 in1.3 mm 0.00 in0.0 mm 0.25 in6.4 mm
07:00 AM 74.5°F23.6°C 73.9°F23.3°C 98% Calm Calm 1.0 mph1.6 kmh 29.85 in1010.8 mb 0.05 in1.3 mm 0.07 in1.8 mm 0.25 in6.4 mm
06:45 AM 74.5°F23.6°C 73.9°F23.3°C 98% Calm Calm -- 29.84 in1010.5 mb 0.00 in0.0 mm 0.00 in0.0 mm 0.20 in5.1 mm
06:30 AM 74.4°F23.6°C 73.8°F23.2°C 98% Calm Calm -- 29.83 in1010.2 mb 0.00 in0.0 mm 0.00 in0.0 mm 0.20 in5.1 mm
06:15 AM 74.4°F23.6°C 73.8°F23.2°C 98% Calm Calm -- 29.82 in1009.8 mb 0.00 in0.0 mm 0.00 in0.0 mm 0.20 in5.1 mm
06:00 AM 74.4°F23.6°C 73.8°F23.2°C 98% Calm Calm 2.0 mph3.2 kmh 29.82 in1009.8 mb 0.00 in0.0 mm 0.00 in0.0 mm 0.20 in5.1 mm
05:45 AM 74.5°F23.6°C 73.9°F23.3°C 98% 1.0 mph SSE1.6 kmh SSE 1.0 mph1.6 kmh 29.81 in1009.5 mb 0.00 in0.0 mm 0.00 in0.0 mm 0.20 in5.1 mm
05:30 AM 74.9°F23.8°C 74.3°F23.5°C 98% 2.0 mph NNW3.2 kmh NNW 2.0 mph3.2 kmh 29.81 in1009.5 mb 0.00 in0.0 mm 0.00 in0.0 mm 0.20 in5.1 mm
05:15 AM 75.4°F24.1°C 74.8°F23.8°C 98% 1.0 mph N1.6 kmh N 4.0 mph6.4 kmh 29.80 in1009.1 mb 0.00 in0.0 mm 0.00 in0.0 mm 0.20 in5.1 mm
05:00 AM 75.6°F24.2°C 75.0°F23.9°C 98% Calm Calm 2.0 mph3.2 kmh 29.80 in1009.1 mb 0.00 in0.0 mm 0.00 in0.0 mm 0.20 in5.1 mm
04:45 AM 75.8°F24.3°C 75.2°F24.0°C 98% Calm Calm 4.0 mph6.4 kmh 29.80 in1009.1 mb 0.00 in0.0 mm 0.00 in0.0 mm 0.20 in5.1 mm
04:30 AM 75.8°F24.3°C 75.2°F24.0°C 98% 1.0 mph S1.6 kmh S 4.0 mph6.4 kmh 29.80 in1009.1 mb 0.00 in0.0 mm 0.00 in0.0 mm 0.20 in5.1 mm
04:15 AM 75.9°F24.4°C 75.3°F24.1°C 98% 1.0 mph S1.6 kmh S 1.0 mph1.6 kmh 29.80 in1009.1 mb 0.00 in0.0 mm 0.00 in0.0 mm 0.20 in5.1 mm
04:00 AM 75.9°F24.4°C 75.3°F24.1°C 98% Calm Calm 1.0 mph1.6 kmh 29.80 in1009.1 mb 0.00 in0.0 mm 0.00 in0.0 mm 0.20 in5.1 mm
03:45 AM 75.6°F24.2°C 75.0°F23.9°C 98% Calm Calm -- 29.81 in1009.5 mb 0.00 in0.0 mm 0.00 in0.0 mm 0.20 in5.1 mm
03:30 AM 75.4°F24.1°C 74.8°F23.8°C 98% Calm Calm -- 29.81 in1009.5 mb 0.00 in0.0 mm 0.00 in0.0 mm 0.20 in5.1 mm
03:15 AM 75.6°F24.2°C 74.7°F23.7°C 97% Calm Calm -- 29.81 in1009.5 mb 0.00 in0.0 mm 0.00 in0.0 mm 0.20 in5.1 mm
03:00 AM 75.6°F24.2°C 74.7°F23.7°C 97% Calm Calm -- 29.81 in1009.5 mb 0.01 in0.3 mm 0.00 in0.0 mm 0.20 in5.1 mm
02:45 AM 75.8°F24.3°C 74.9°F23.8°C 97% Calm Calm 1.0 mph1.6 kmh 29.81 in1009.5 mb 0.05 in1.3 mm 0.00 in0.0 mm 0.20 in5.1 mm
02:30 AM 75.8°F24.3°C 74.9°F23.8°C 97% Calm Calm -- 29.81 in1009.5 mb 0.07 in1.8 mm 0.00 in0.0 mm 0.20 in5.1 mm
02:15 AM 75.9°F24.4°C 75.0°F23.9°C 97% Calm Calm -- 29.82 in1009.8 mb 0.07 in1.8 mm 0.04 in1.0 mm 0.20 in5.1 mm
02:00 AM 75.9°F24.4°C 75.0°F23.9°C 97% 1.0 mph NNE1.6 kmh NNE 1.0 mph1.6 kmh 29.82 in1009.8 mb 0.06 in1.5 mm 0.03 in0.8 mm 0.19 in4.8 mm
01:45 AM 76.3°F24.6°C 75.4°F24.1°C 97% Calm Calm -- 29.85 in1010.8 mb 0.04 in1.0 mm 0.16 in4.1 mm 0.17 in4.3 mm
01:30 AM 76.3°F24.6°C 75.4°F24.1°C 97% Calm Calm 4.0 mph6.4 kmh 29.83 in1010.2 mb 0.00 in0.0 mm 0.00 in0.0 mm 0.13 in3.3 mm
01:15 AM 76.1°F24.5°C 75.2°F24.0°C 97% Calm Calm 1.0 mph1.6 kmh 29.82 in1009.8 mb 0.00 in0.0 mm 0.00 in0.0 mm 0.13 in3.3 mm
01:00 AM 76.3°F24.6°C 75.1°F23.9°C 96% Calm Calm 1.0 mph1.6 kmh 29.83 in1010.2 mb 0.00 in0.0 mm 0.00 in0.0 mm 0.13 in3.3 mm
12:45 AM 76.3°F24.6°C 75.1°F23.9°C 96% 1.0 mph E1.6 kmh E 1.0 mph1.6 kmh 29.84 in1010.5 mb 0.00 in0.0 mm 0.00 in0.0 mm 0.13 in3.3 mm
12:30 AM 76.5°F24.7°C 75.3°F24.1°C 96% Calm Calm 2.0 mph3.2 kmh 29.83 in1010.2 mb 0.00 in0.0 mm 0.00 in0.0 mm 0.13 in3.3 mm
12:15 AM 76.5°F24.7°C 75.3°F24.1°C 96% 3.0 mph NE4.8 kmh NE 4.0 mph6.4 kmh 29.83 in1010.2 mb 0.00 in0.0 mm 0.00 in0.0 mm 0.13 in3.3 mm
12:00 AM 76.5°F24.7°C 75.3°F24.1°C 96% 1.0 mph NE1.6 kmh NE 2.0 mph3.2 kmh 29.84 in1010.5 mb 0.13 in3.3 mm 0.00 in0.0 mm 0.13 in3.3 mm